TNCB/BON METAR and TAF weather

Enter ICAO airport designator
Station Type Date Time Source
TNCB METAR 2019/05/27 08:55 UTC NOAA

TNCB 270855Z AUTO 09011KT 9999 FEW014/// 27/24 Q1011


Station Type Date Time Source
TNCB Decoded METAR 2019/05/27 08:55 UTC NOAA

Flamingo Airport, Bonaire, Netherlands Antilles (TNCB) 12-09N 068-17W 7M
May 27, 2019 - 04:55 AM EDT / 2019.05.27 0855 UTC
Wind: from the E (090 degrees) at 13 MPH (11 KT):0
Visibility: greater than 7 mile(s):0
Sky conditions: mostly clear
Temperature: 80 F (27 C)
Dew Point: 75 F (24 C)
Relative Humidity: 83%
Pressure (altimeter): 29.85 in. Hg (1011 hPa)
ob: TNCB 270855Z AUTO 09011KT 9999 FEW014/// 27/24 Q1011
cycle: 9

Station Type Date Time Source
TNCB TAF 2019/05/27 06:27 UTC NOAA

TAF TAF TNCB 270449Z 2706/2812 08014KT 9999 SCT020

Example: see airport list